Culver, Oregon
Current Conditions -  °F | °C
As of 9:56 AM on Monday 26 Jan 2015 (Local Time) from KRDM Reporting Station
Clear Clear  
Wind Chill: 57°   Ceiling: Unl
Heat Index: 57°   Visibility: 10mi
Dew Point: 34°   Wind: 0mph
Humidity: 42%   Direction: NA
Pressure: 30.09"   Gusts: NA
Location:  44.53°N, 121.21°W
Report Text: KRDM 261756Z 00000KT 10SM CLR 14/01 A3009 RMK AO2 SLP182 T01390011 10139 20039 53004
Loading
Personal Weather Stations






























Interactive Weather Map New forecast layout! Learn more

10-Day Weather Forecast

Advertisements
Track Severe Weather on mobile